sensor_id;sensor_type;location;lat;lon;timestamp;P1;durP1;ratioP1;P2;durP2;ratioP2
7833;SDS011;3962;42.696;23.354;2023-07-20T00:01:16;5.90;;;5.60;;
7833;SDS011;3962;42.696;23.354;2023-07-20T00:03:43;6.47;;;6.17;;
7833;SDS011;3962;42.696;23.354;2023-07-20T00:06:10;7.27;;;6.97;;
7833;SDS011;3962;42.696;23.354;2023-07-20T00:08:38;7.67;;;7.27;;
7833;SDS011;3962;42.696;23.354;2023-07-20T00:11:04;7.47;;;6.97;;
7833;SDS011;3962;42.696;23.354;2023-07-20T00:13:31;7.63;;;7.27;;
7833;SDS011;3962;42.696;23.354;2023-07-20T00:15:58;6.87;;;6.57;;
7833;SDS011;3962;42.696;23.354;2023-07-20T00:18:25;6.17;;;5.87;;
7833;SDS011;3962;42.696;23.354;2023-07-20T00:20:52;6.13;;;5.83;;
7833;SDS011;3962;42.696;23.354;2023-07-20T00:23:18;7.03;;;6.73;;
7833;SDS011;3962;42.696;23.354;2023-07-20T00:25:48;6.63;;;6.33;;
7833;SDS011;3962;42.696;23.354;2023-07-20T00:28:14;6.93;;;6.63;;
7833;SDS011;3962;42.696;23.354;2023-07-20T00:30:41;6.77;;;6.47;;
7833;SDS011;3962;42.696;23.354;2023-07-20T00:33:09;6.83;;;6.53;;
7833;SDS011;3962;42.696;23.354;2023-07-20T00:35:37;7.43;;;7.10;;
7833;SDS011;3962;42.696;23.354;2023-07-20T00:38:04;6.37;;;6.07;;
7833;SDS011;3962;42.696;23.354;2023-07-20T00:40:35;8.07;;;7.60;;
7833;SDS011;3962;42.696;23.354;2023-07-20T00:43:03;7.17;;;6.87;;
7833;SDS011;3962;42.696;23.354;2023-07-20T00:45:30;6.53;;;6.13;;
7833;SDS011;3962;42.696;23.354;2023-07-20T00:47:58;7.03;;;6.73;;
7833;SDS011;3962;42.696;23.354;2023-07-20T00:50:27;7.20;;;6.90;;
7833;SDS011;3962;42.696;23.354;2023-07-20T00:52:54;7.57;;;7.27;;
7833;SDS011;3962;42.696;23.354;2023-07-20T00:55:23;8.00;;;7.67;;
7833;SDS011;3962;42.696;23.354;2023-07-20T00:57:51;7.03;;;6.73;;
7833;SDS011;3962;42.696;23.354;2023-07-20T01:00:20;6.97;;;6.67;;
7833;SDS011;3962;42.696;23.354;2023-07-20T01:02:46;7.50;;;7.00;;
7833;SDS011;3962;42.696;23.354;2023-07-20T01:05:13;6.90;;;6.50;;
7833;SDS011;3962;42.696;23.354;2023-07-20T01:07:43;6.80;;;6.50;;
7833;SDS011;3962;42.696;23.354;2023-07-20T01:10:16;6.83;;;6.43;;
7833;SDS011;3962;42.696;23.354;2023-07-20T01:12:48;8.03;;;7.63;;
7833;SDS011;3962;42.696;23.354;2023-07-20T01:15:20;7.47;;;7.17;;
7833;SDS011;3962;42.696;23.354;2023-07-20T01:17:47;7.13;;;6.73;;
7833;SDS011;3962;42.696;23.354;2023-07-20T01:20:14;7.13;;;6.73;;
7833;SDS011;3962;42.696;23.354;2023-07-20T01:31:52;6.67;;;6.37;;
7833;SDS011;3962;42.696;23.354;2023-07-20T01:34:20;6.83;;;6.53;;
7833;SDS011;3962;42.696;23.354;2023-07-20T01:36:49;7.47;;;7.07;;
7833;SDS011;3962;42.696;23.354;2023-07-20T01:39:19;7.70;;;7.13;;
7833;SDS011;3962;42.696;23.354;2023-07-20T01:41:47;6.67;;;6.27;;
7833;SDS011;3962;42.696;23.354;2023-07-20T01:44:14;7.40;;;7.00;;
7833;SDS011;3962;42.696;23.354;2023-07-20T01:46:41;7.10;;;6.60;;
7833;SDS011;3962;42.696;23.354;2023-07-20T01:49:09;8.07;;;7.57;;
7833;SDS011;3962;42.696;23.354;2023-07-20T01:51:37;7.37;;;7.03;;
7833;SDS011;3962;42.696;23.354;2023-07-20T01:54:03;8.07;;;7.67;;
7833;SDS011;3962;42.696;23.354;2023-07-20T01:56:30;7.37;;;7.07;;
7833;SDS011;3962;42.696;23.354;2023-07-20T01:58:57;7.90;;;7.50;;
7833;SDS011;3962;42.696;23.354;2023-07-20T02:01:24;7.50;;;6.97;;
7833;SDS011;3962;42.696;23.354;2023-07-20T02:03:53;6.73;;;6.43;;
7833;SDS011;3962;42.696;23.354;2023-07-20T02:06:22;7.30;;;6.77;;
7833;SDS011;3962;42.696;23.354;2023-07-20T02:08:49;7.13;;;6.60;;
7833;SDS011;3962;42.696;23.354;2023-07-20T02:11:16;8.53;;;8.03;;
7833;SDS011;3962;42.696;23.354;2023-07-20T02:13:43;6.97;;;6.67;;
7833;SDS011;3962;42.696;23.354;2023-07-20T02:16:10;8.13;;;7.60;;
7833;SDS011;3962;42.696;23.354;2023-07-20T02:18:37;7.70;;;7.10;;
7833;SDS011;3962;42.696;23.354;2023-07-20T02:21:04;7.77;;;7.37;;
7833;SDS011;3962;42.696;23.354;2023-07-20T02:23:32;7.80;;;7.40;;
7833;SDS011;3962;42.696;23.354;2023-07-20T02:25:59;7.70;;;7.30;;
7833;SDS011;3962;42.696;23.354;2023-07-20T02:28:25;8.33;;;7.83;;
7833;SDS011;3962;42.696;23.354;2023-07-20T02:30:52;7.30;;;7.00;;
7833;SDS011;3962;42.696;23.354;2023-07-20T02:33:19;7.10;;;6.70;;
7833;SDS011;3962;42.696;23.354;2023-07-20T02:35:46;6.83;;;6.43;;
7833;SDS011;3962;42.696;23.354;2023-07-20T02:38:13;8.10;;;7.70;;
7833;SDS011;3962;42.696;23.354;2023-07-20T02:40:41;8.00;;;7.50;;
7833;SDS011;3962;42.696;23.354;2023-07-20T02:43:08;7.73;;;7.33;;
7833;SDS011;3962;42.696;23.354;2023-07-20T02:45:35;7.73;;;7.33;;
7833;SDS011;3962;42.696;23.354;2023-07-20T02:48:06;7.37;;;7.07;;
7833;SDS011;3962;42.696;23.354;2023-07-20T02:50:34;7.57;;;7.17;;
7833;SDS011;3962;42.696;23.354;2023-07-20T02:53:00;7.03;;;6.73;;
7833;SDS011;3962;42.696;23.354;2023-07-20T02:55:27;7.23;;;6.83;;
7833;SDS011;3962;42.696;23.354;2023-07-20T02:57:56;7.37;;;6.97;;
7833;SDS011;3962;42.696;23.354;2023-07-20T03:00:22;7.43;;;6.83;;
7833;SDS011;3962;42.696;23.354;2023-07-20T03:02:49;6.77;;;6.37;;
7833;SDS011;3962;42.696;23.354;2023-07-20T03:05:20;7.47;;;7.07;;
7833;SDS011;3962;42.696;23.354;2023-07-20T03:07:48;7.07;;;6.67;;
7833;SDS011;3962;42.696;23.354;2023-07-20T03:10:15;7.10;;;6.70;;
7833;SDS011;3962;42.696;23.354;2023-07-20T03:12:42;6.63;;;6.23;;
7833;SDS011;3962;42.696;23.354;2023-07-20T03:15:10;8.10;;;7.67;;
7833;SDS011;3962;42.696;23.354;2023-07-20T03:17:37;7.70;;;7.30;;
7833;SDS011;3962;42.696;23.354;2023-07-20T03:20:05;8.20;;;7.77;;
7833;SDS011;3962;42.696;23.354;2023-07-20T03:22:34;7.27;;;6.97;;
7833;SDS011;3962;42.696;23.354;2023-07-20T03:25:01;7.33;;;6.83;;
7833;SDS011;3962;42.696;23.354;2023-07-20T03:27:28;8.27;;;7.87;;
7833;SDS011;3962;42.696;23.354;2023-07-20T03:29:55;7.83;;;7.43;;
7833;SDS011;3962;42.696;23.354;2023-07-20T03:32:23;7.80;;;7.40;;
7833;SDS011;3962;42.696;23.354;2023-07-20T03:34:50;7.37;;;7.07;;
7833;SDS011;3962;42.696;23.354;2023-07-20T03:37:17;8.53;;;8.03;;
7833;SDS011;3962;42.696;23.354;2023-07-20T03:39:44;7.87;;;7.47;;
7833;SDS011;3962;42.696;23.354;2023-07-20T03:42:10;8.37;;;7.87;;
7833;SDS011;3962;42.696;23.354;2023-07-20T03:44:37;8.03;;;7.57;;
7833;SDS011;3962;42.696;23.354;2023-07-20T03:47:04;8.33;;;7.53;;
7833;SDS011;3962;42.696;23.354;2023-07-20T03:49:33;7.27;;;6.87;;
7833;SDS011;3962;42.696;23.354;2023-07-20T03:52:00;7.10;;;6.80;;
7833;SDS011;3962;42.696;23.354;2023-07-20T03:54:28;7.07;;;6.77;;
7833;SDS011;3962;42.696;23.354;2023-07-20T03:56:55;8.10;;;7.60;;
7833;SDS011;3962;42.696;23.354;2023-07-20T03:59:22;7.17;;;6.83;;
7833;SDS011;3962;42.696;23.354;2023-07-20T04:01:48;7.33;;;6.93;;
7833;SDS011;3962;42.696;23.354;2023-07-20T04:04:15;7.37;;;6.90;;
7833;SDS011;3962;42.696;23.354;2023-07-20T04:06:44;8.33;;;7.93;;
7833;SDS011;3962;42.696;23.354;2023-07-20T04:09:11;9.37;;;8.80;;
7833;SDS011;3962;42.696;23.354;2023-07-20T04:11:38;7.03;;;6.63;;
7833;SDS011;3962;42.696;23.354;2023-07-20T04:14:05;7.60;;;7.23;;
7833;SDS011;3962;42.696;23.354;2023-07-20T04:16:32;7.17;;;6.87;;
7833;SDS011;3962;42.696;23.354;2023-07-20T04:18:59;8.50;;;8.00;;
7833;SDS011;3962;42.696;23.354;2023-07-20T04:21:26;7.70;;;7.20;;
7833;SDS011;3962;42.696;23.354;2023-07-20T04:23:55;8.20;;;7.80;;
7833;SDS011;3962;42.696;23.354;2023-07-20T04:26:21;7.27;;;6.93;;
7833;SDS011;3962;42.696;23.354;2023-07-20T04:28:48;7.97;;;7.47;;
7833;SDS011;3962;42.696;23.354;2023-07-20T04:31:16;8.60;;;8.10;;
7833;SDS011;3962;42.696;23.354;2023-07-20T04:33:42;7.90;;;7.50;;
7833;SDS011;3962;42.696;23.354;2023-07-20T04:36:09;7.90;;;7.50;;
7833;SDS011;3962;42.696;23.354;2023-07-20T04:38:36;6.90;;;6.60;;
7833;SDS011;3962;42.696;23.354;2023-07-20T04:41:04;7.27;;;6.97;;
7833;SDS011;3962;42.696;23.354;2023-07-20T04:43:31;7.70;;;7.27;;
7833;SDS011;3962;42.696;23.354;2023-07-20T04:45:58;7.83;;;7.43;;
7833;SDS011;3962;42.696;23.354;2023-07-20T04:48:24;7.80;;;7.40;;
7833;SDS011;3962;42.696;23.354;2023-07-20T04:50:51;7.73;;;7.33;;
7833;SDS011;3962;42.696;23.354;2023-07-20T04:53:21;7.60;;;7.17;;
7833;SDS011;3962;42.696;23.354;2023-07-20T04:55:48;7.60;;;7.20;;
7833;SDS011;3962;42.696;23.354;2023-07-20T04:58:21;7.77;;;7.37;;
7833;SDS011;3962;42.696;23.354;2023-07-20T05:00:49;7.63;;;7.33;;
7833;SDS011;3962;42.696;23.354;2023-07-20T05:03:16;7.60;;;7.20;;
7833;SDS011;3962;42.696;23.354;2023-07-20T05:05:42;7.13;;;6.73;;
7833;SDS011;3962;42.696;23.354;2023-07-20T05:08:09;7.37;;;6.97;;
7833;SDS011;3962;42.696;23.354;2023-07-20T05:10:36;7.57;;;7.17;;
7833;SDS011;3962;42.696;23.354;2023-07-20T05:13:03;6.87;;;6.50;;
7833;SDS011;3962;42.696;23.354;2023-07-20T05:15:32;7.67;;;7.27;;
7833;SDS011;3962;42.696;23.354;2023-07-20T05:17:59;6.90;;;6.60;;
7833;SDS011;3962;42.696;23.354;2023-07-20T05:20:26;7.93;;;7.53;;
7833;SDS011;3962;42.696;23.354;2023-07-20T05:22:54;7.37;;;6.97;;
7833;SDS011;3962;42.696;23.354;2023-07-20T05:25:20;8.10;;;7.60;;
7833;SDS011;3962;42.696;23.354;2023-07-20T05:27:47;7.07;;;6.77;;
7833;SDS011;3962;42.696;23.354;2023-07-20T05:30:16;7.33;;;6.93;;
7833;SDS011;3962;42.696;23.354;2023-07-20T05:32:44;7.43;;;7.03;;
7833;SDS011;3962;42.696;23.354;2023-07-20T05:35:12;8.70;;;8.10;;
7833;SDS011;3962;42.696;23.354;2023-07-20T05:37:40;8.07;;;7.67;;
7833;SDS011;3962;42.696;23.354;2023-07-20T05:40:08;7.27;;;6.87;;
7833;SDS011;3962;42.696;23.354;2023-07-20T05:42:37;6.80;;;6.50;;
7833;SDS011;3962;42.696;23.354;2023-07-20T05:45:04;6.80;;;6.50;;
7833;SDS011;3962;42.696;23.354;2023-07-20T05:47:32;6.63;;;6.33;;
7833;SDS011;3962;42.696;23.354;2023-07-20T05:50:00;7.10;;;6.70;;
7833;SDS011;3962;42.696;23.354;2023-07-20T05:52:28;7.93;;;7.43;;
7833;SDS011;3962;42.696;23.354;2023-07-20T05:54:55;8.20;;;7.70;;
7833;SDS011;3962;42.696;23.354;2023-07-20T05:57:22;6.57;;;6.20;;
7833;SDS011;3962;42.696;23.354;2023-07-20T05:59:49;6.70;;;6.37;;
7833;SDS011;3962;42.696;23.354;2023-07-20T06:02:16;7.33;;;7.03;;
7833;SDS011;3962;42.696;23.354;2023-07-20T06:04:42;6.53;;;6.13;;
7833;SDS011;3962;42.696;23.354;2023-07-20T06:07:11;6.50;;;6.10;;
7833;SDS011;3962;42.696;23.354;2023-07-20T06:09:37;6.97;;;6.57;;
7833;SDS011;3962;42.696;23.354;2023-07-20T06:12:05;7.17;;;6.77;;
7833;SDS011;3962;42.696;23.354;2023-07-20T06:14:32;7.10;;;6.70;;
7833;SDS011;3962;42.696;23.354;2023-07-20T06:16:59;7.47;;;7.07;;
7833;SDS011;3962;42.696;23.354;2023-07-20T06:19:26;7.60;;;7.20;;
7833;SDS011;3962;42.696;23.354;2023-07-20T06:21:53;7.37;;;6.97;;
7833;SDS011;3962;42.696;23.354;2023-07-20T06:24:21;6.47;;;6.07;;
7833;SDS011;3962;42.696;23.354;2023-07-20T06:26:48;7.07;;;6.67;;
7833;SDS011;3962;42.696;23.354;2023-07-20T06:29:14;6.47;;;6.17;;
7833;SDS011;3962;42.696;23.354;2023-07-20T06:31:41;7.37;;;6.97;;
7833;SDS011;3962;42.696;23.354;2023-07-20T06:34:08;7.07;;;6.77;;
7833;SDS011;3962;42.696;23.354;2023-07-20T06:36:35;7.77;;;7.37;;
7833;SDS011;3962;42.696;23.354;2023-07-20T06:39:02;8.70;;;8.10;;
7833;SDS011;3962;42.696;23.354;2023-07-20T06:41:30;7.40;;;7.00;;
7833;SDS011;3962;42.696;23.354;2023-07-20T06:43:57;8.10;;;7.60;;
7833;SDS011;3962;42.696;23.354;2023-07-20T06:46:24;7.97;;;7.47;;
7833;SDS011;3962;42.696;23.354;2023-07-20T06:48:51;6.50;;;6.20;;
7833;SDS011;3962;42.696;23.354;2023-07-20T06:51:18;7.20;;;6.70;;
7833;SDS011;3962;42.696;23.354;2023-07-20T06:53:45;6.63;;;6.33;;
7833;SDS011;3962;42.696;23.354;2023-07-20T06:56:12;7.30;;;6.90;;
7833;SDS011;3962;42.696;23.354;2023-07-20T06:58:40;6.87;;;6.47;;
7833;SDS011;3962;42.696;23.354;2023-07-20T07:01:07;6.90;;;6.50;;
7833;SDS011;3962;42.696;23.354;2023-07-20T07:03:34;7.27;;;6.77;;
7833;SDS011;3962;42.696;23.354;2023-07-20T07:06:02;6.37;;;6.07;;
7833;SDS011;3962;42.696;23.354;2023-07-20T07:08:28;6.63;;;6.23;;
7833;SDS011;3962;42.696;23.354;2023-07-20T07:10:55;6.23;;;5.83;;
7833;SDS011;3962;42.696;23.354;2023-07-20T07:13:22;6.67;;;6.27;;
7833;SDS011;3962;42.696;23.354;2023-07-20T07:15:51;6.47;;;6.13;;
7833;SDS011;3962;42.696;23.354;2023-07-20T07:18:18;6.60;;;6.23;;
7833;SDS011;3962;42.696;23.354;2023-07-20T07:20:51;6.00;;;5.70;;
7833;SDS011;3962;42.696;23.354;2023-07-20T07:23:18;6.87;;;6.47;;
7833;SDS011;3962;42.696;23.354;2023-07-20T07:25:45;6.40;;;6.00;;
7833;SDS011;3962;42.696;23.354;2023-07-20T07:28:12;5.63;;;5.33;;
7833;SDS011;3962;42.696;23.354;2023-07-20T07:30:39;5.47;;;5.17;;
7833;SDS011;3962;42.696;23.354;2023-07-20T07:33:07;6.43;;;5.93;;
7833;SDS011;3962;42.696;23.354;2023-07-20T07:35:35;4.83;;;4.63;;
7833;SDS011;3962;42.696;23.354;2023-07-20T07:38:02;6.00;;;5.70;;
7833;SDS011;3962;42.696;23.354;2023-07-20T07:40:28;5.23;;;4.93;;
7833;SDS011;3962;42.696;23.354;2023-07-20T07:42:55;5.37;;;5.07;;
7833;SDS011;3962;42.696;23.354;2023-07-20T07:45:22;5.33;;;5.03;;
7833;SDS011;3962;42.696;23.354;2023-07-20T07:47:49;5.50;;;5.20;;
7833;SDS011;3962;42.696;23.354;2023-07-20T07:50:17;5.30;;;5.00;;
7833;SDS011;3962;42.696;23.354;2023-07-20T07:52:44;6.03;;;5.73;;
7833;SDS011;3962;42.696;23.354;2023-07-20T07:55:11;5.53;;;5.13;;
7833;SDS011;3962;42.696;23.354;2023-07-20T07:57:38;5.80;;;5.50;;
7833;SDS011;3962;42.696;23.354;2023-07-20T08:00:05;5.30;;;5.00;;
7833;SDS011;3962;42.696;23.354;2023-07-20T08:02:38;4.50;;;4.30;;
7833;SDS011;3962;42.696;23.354;2023-07-20T08:05:07;4.90;;;4.70;;
7833;SDS011;3962;42.696;23.354;2023-07-20T08:07:35;5.33;;;5.03;;
7833;SDS011;3962;42.696;23.354;2023-07-20T08:10:02;5.87;;;5.47;;
7833;SDS011;3962;42.696;23.354;2023-07-20T08:12:30;6.53;;;6.03;;
7833;SDS011;3962;42.696;23.354;2023-07-20T08:14:56;5.57;;;5.17;;
7833;SDS011;3962;42.696;23.354;2023-07-20T08:17:23;6.77;;;6.27;;
7833;SDS011;3962;42.696;23.354;2023-07-20T08:19:50;6.20;;;5.87;;
7833;SDS011;3962;42.696;23.354;2023-07-20T08:22:17;6.30;;;5.83;;
7833;SDS011;3962;42.696;23.354;2023-07-20T08:24:45;8.50;;;7.63;;
7833;SDS011;3962;42.696;23.354;2023-07-20T08:27:12;7.30;;;5.97;;
7833;SDS011;3962;42.696;23.354;2023-07-20T08:29:39;6.63;;;6.03;;
7833;SDS011;3962;42.696;23.354;2023-07-20T08:32:06;5.93;;;5.53;;
7833;SDS011;3962;42.696;23.354;2023-07-20T08:34:35;5.63;;;5.33;;
7833;SDS011;3962;42.696;23.354;2023-07-20T08:37:02;5.87;;;5.53;;
7833;SDS011;3962;42.696;23.354;2023-07-20T08:39:33;6.13;;;5.73;;
7833;SDS011;3962;42.696;23.354;2023-07-20T08:42:01;6.70;;;6.13;;
7833;SDS011;3962;42.696;23.354;2023-07-20T08:44:33;6.50;;;6.00;;
7833;SDS011;3962;42.696;23.354;2023-07-20T08:47:05;5.47;;;5.17;;
7833;SDS011;3962;42.696;23.354;2023-07-20T08:49:33;5.33;;;4.97;;
7833;SDS011;3962;42.696;23.354;2023-07-20T08:52:00;6.33;;;5.83;;
7833;SDS011;3962;42.696;23.354;2023-07-20T08:54:30;6.37;;;5.97;;
7833;SDS011;3962;42.696;23.354;2023-07-20T08:57:08;5.80;;;5.37;;
7833;SDS011;3962;42.696;23.354;2023-07-20T08:59:39;6.00;;;5.60;;
7833;SDS011;3962;42.696;23.354;2023-07-20T09:02:07;6.03;;;5.47;;
7833;SDS011;3962;42.696;23.354;2023-07-20T09:04:38;6.53;;;6.13;;
7833;SDS011;3962;42.696;23.354;2023-07-20T09:07:05;6.20;;;5.83;;
7833;SDS011;3962;42.696;23.354;2023-07-20T09:09:33;5.30;;;5.00;;
7833;SDS011;3962;42.696;23.354;2023-07-20T09:12:07;5.40;;;5.10;;
7833;SDS011;3962;42.696;23.354;2023-07-20T09:14:40;5.83;;;5.37;;
7833;SDS011;3962;42.696;23.354;2023-07-20T09:17:12;5.73;;;5.33;;
7833;SDS011;3962;42.696;23.354;2023-07-20T09:19:45;6.00;;;5.60;;
7833;SDS011;3962;42.696;23.354;2023-07-20T09:22:12;5.20;;;4.90;;
7833;SDS011;3962;42.696;23.354;2023-07-20T09:24:40;5.27;;;4.97;;
7833;SDS011;3962;42.696;23.354;2023-07-20T09:27:09;5.60;;;5.30;;
7833;SDS011;3962;42.696;23.354;2023-07-20T09:29:42;5.00;;;4.80;;
7833;SDS011;3962;42.696;23.354;2023-07-20T09:32:20;5.10;;;4.80;;
7833;SDS011;3962;42.696;23.354;2023-07-20T09:34:49;6.00;;;5.60;;
7833;SDS011;3962;42.696;23.354;2023-07-20T09:37:20;4.77;;;4.57;;
7833;SDS011;3962;42.696;23.354;2023-07-20T09:39:48;10.13;;;6.23;;
7833;SDS011;3962;42.696;23.354;2023-07-20T09:42:19;5.50;;;5.20;;
7833;SDS011;3962;42.696;23.354;2023-07-20T09:44:48;6.87;;;6.37;;
7833;SDS011;3962;42.696;23.354;2023-07-20T09:47:21;5.73;;;5.33;;
7833;SDS011;3962;42.696;23.354;2023-07-20T09:49:48;5.87;;;5.47;;
7833;SDS011;3962;42.696;23.354;2023-07-20T09:52:15;6.27;;;5.87;;
7833;SDS011;3962;42.696;23.354;2023-07-20T09:54:44;5.33;;;5.03;;
7833;SDS011;3962;42.696;23.354;2023-07-20T09:57:13;6.20;;;5.80;;
7833;SDS011;3962;42.696;23.354;2023-07-20T09:59:41;4.70;;;4.50;;
7833;SDS011;3962;42.696;23.354;2023-07-20T10:02:11;5.33;;;5.03;;
7833;SDS011;3962;42.696;23.354;2023-07-20T10:04:46;5.40;;;5.13;;
7833;SDS011;3962;42.696;23.354;2023-07-20T10:07:13;4.70;;;4.50;;
7833;SDS011;3962;42.696;23.354;2023-07-20T10:09:41;5.13;;;4.83;;
7833;SDS011;3962;42.696;23.354;2023-07-20T10:12:11;5.67;;;5.37;;
7833;SDS011;3962;42.696;23.354;2023-07-20T10:14:41;4.83;;;4.63;;
7833;SDS011;3962;42.696;23.354;2023-07-20T10:17:16;7.50;;;6.83;;
7833;SDS011;3962;42.696;23.354;2023-07-20T10:19:44;5.60;;;5.30;;
7833;SDS011;3962;42.696;23.354;2023-07-20T10:22:14;5.67;;;5.37;;
7833;SDS011;3962;42.696;23.354;2023-07-20T10:24:45;5.53;;;5.23;;
7833;SDS011;3962;42.696;23.354;2023-07-20T10:27:13;6.03;;;5.60;;
7833;SDS011;3962;42.696;23.354;2023-07-20T10:29:40;6.07;;;5.77;;
7833;SDS011;3962;42.696;23.354;2023-07-20T10:32:10;5.70;;;5.40;;
7833;SDS011;3962;42.696;23.354;2023-07-20T10:34:37;7.80;;;7.00;;
7833;SDS011;3962;42.696;23.354;2023-07-20T10:37:04;5.07;;;4.87;;
7833;SDS011;3962;42.696;23.354;2023-07-20T10:39:32;5.60;;;5.30;;
7833;SDS011;3962;42.696;23.354;2023-07-20T10:41:59;5.93;;;5.63;;
7833;SDS011;3962;42.696;23.354;2023-07-20T10:44:29;5.97;;;5.63;;
7833;SDS011;3962;42.696;23.354;2023-07-20T10:47:00;6.00;;;5.70;;
7833;SDS011;3962;42.696;23.354;2023-07-20T10:49:29;5.47;;;5.17;;
7833;SDS011;3962;42.696;23.354;2023-07-20T10:51:59;5.40;;;5.10;;
7833;SDS011;3962;42.696;23.354;2023-07-20T10:54:33;6.30;;;5.83;;
7833;SDS011;3962;42.696;23.354;2023-07-20T10:59:49;5.30;;;5.00;;
7833;SDS011;3962;42.696;23.354;2023-07-20T11:02:17;6.30;;;6.00;;
7833;SDS011;3962;42.696;23.354;2023-07-20T11:04:46;5.13;;;4.87;;
7833;SDS011;3962;42.696;23.354;2023-07-20T11:07:17;5.60;;;5.27;;
7833;SDS011;3962;42.696;23.354;2023-07-20T11:10:12;5.63;;;5.33;;
7833;SDS011;3962;42.696;23.354;2023-07-20T11:12:40;5.00;;;4.80;;
7833;SDS011;3962;42.696;23.354;2023-07-20T11:15:08;4.70;;;4.47;;
7833;SDS011;3962;42.696;23.354;2023-07-20T11:17:35;5.90;;;5.37;;
7833;SDS011;3962;42.696;23.354;2023-07-20T11:20:05;4.97;;;4.73;;
7833;SDS011;3962;42.696;23.354;2023-07-20T11:22:32;5.13;;;4.93;;
7833;SDS011;3962;42.696;23.354;2023-07-20T11:25:00;5.37;;;4.97;;
7833;SDS011;3962;42.696;23.354;2023-07-20T11:27:27;4.70;;;4.50;;
7833;SDS011;3962;42.696;23.354;2023-07-20T11:29:53;5.40;;;5.10;;
7833;SDS011;3962;42.696;23.354;2023-07-20T11:32:20;5.53;;;5.13;;
7833;SDS011;3962;42.696;23.354;2023-07-20T11:34:48;4.73;;;4.50;;
7833;SDS011;3962;42.696;23.354;2023-07-20T11:37:16;4.50;;;4.30;;
7833;SDS011;3962;42.696;23.354;2023-07-20T11:39:43;4.60;;;4.40;;
7833;SDS011;3962;42.696;23.354;2023-07-20T11:42:10;4.83;;;4.63;;
7833;SDS011;3962;42.696;23.354;2023-07-20T11:44:38;5.43;;;5.03;;
7833;SDS011;3962;42.696;23.354;2023-07-20T11:47:05;4.80;;;4.60;;
7833;SDS011;3962;42.696;23.354;2023-07-20T11:49:34;5.50;;;5.20;;
7833;SDS011;3962;42.696;23.354;2023-07-20T11:52:02;4.53;;;4.33;;
7833;SDS011;3962;42.696;23.354;2023-07-20T11:54:31;5.00;;;4.70;;
7833;SDS011;3962;42.696;23.354;2023-07-20T11:57:00;4.70;;;4.50;;
7833;SDS011;3962;42.696;23.354;2023-07-20T11:59:27;4.50;;;4.30;;
7833;SDS011;3962;42.696;23.354;2023-07-20T12:01:54;4.67;;;4.47;;
7833;SDS011;3962;42.696;23.354;2023-07-20T12:04:22;4.23;;;4.03;;
7833;SDS011;3962;42.696;23.354;2023-07-20T12:06:49;4.20;;;4.00;;
7833;SDS011;3962;42.696;23.354;2023-07-20T12:09:16;4.65;;;4.45;;
7833;SDS011;3962;42.696;23.354;2023-07-20T12:11:44;4.43;;;4.23;;
7833;SDS011;3962;42.696;23.354;2023-07-20T12:14:11;4.87;;;4.57;;
7833;SDS011;3962;42.696;23.354;2023-07-20T12:16:38;4.53;;;4.33;;
7833;SDS011;3962;42.696;23.354;2023-07-20T12:19:07;5.43;;;5.10;;
7833;SDS011;3962;42.696;23.354;2023-07-20T12:21:36;4.45;;;4.25;;
7833;SDS011;3962;42.696;23.354;2023-07-20T12:24:05;4.45;;;4.15;;
7833;SDS011;3962;42.696;23.354;2023-07-20T12:26:34;4.40;;;4.20;;
7833;SDS011;3962;42.696;23.354;2023-07-20T12:29:02;4.32;;;4.13;;
7833;SDS011;3962;42.696;23.354;2023-07-20T12:31:36;4.10;;;3.90;;
7833;SDS011;3962;42.696;23.354;2023-07-20T12:34:04;4.55;;;4.35;;
7833;SDS011;3962;42.696;23.354;2023-07-20T12:36:33;4.30;;;4.10;;
7833;SDS011;3962;42.696;23.354;2023-07-20T12:39:01;4.43;;;4.22;;
7833;SDS011;3962;42.696;23.354;2023-07-20T12:41:28;4.53;;;4.32;;
7833;SDS011;3962;42.696;23.354;2023-07-20T12:43:55;4.60;;;4.30;;
7833;SDS011;3962;42.696;23.354;2023-07-20T12:46:24;4.65;;;4.45;;
7833;SDS011;3962;42.696;23.354;2023-07-20T12:48:54;5.13;;;4.90;;
7833;SDS011;3962;42.696;23.354;2023-07-20T12:51:20;5.20;;;4.80;;
7833;SDS011;3962;42.696;23.354;2023-07-20T12:53:47;4.10;;;3.90;;
7833;SDS011;3962;42.696;23.354;2023-07-20T12:56:14;4.93;;;4.63;;
7833;SDS011;3962;42.696;23.354;2023-07-20T12:58:41;6.00;;;5.40;;
7833;SDS011;3962;42.696;23.354;2023-07-20T13:01:07;4.50;;;4.30;;
7833;SDS011;3962;42.696;23.354;2023-07-20T13:03:35;5.57;;;5.07;;
7833;SDS011;3962;42.696;23.354;2023-07-20T13:06:02;4.97;;;4.50;;
7833;SDS011;3962;42.696;23.354;2023-07-20T13:08:29;5.57;;;5.28;;
7833;SDS011;3962;42.696;23.354;2023-07-20T13:10:56;4.47;;;4.28;;
7833;SDS011;3962;42.696;23.354;2023-07-20T13:13:23;6.80;;;6.20;;
7833;SDS011;3962;42.696;23.354;2023-07-20T13:15:49;4.70;;;4.35;;
7833;SDS011;3962;42.696;23.354;2023-07-20T13:18:16;4.53;;;4.28;;
7833;SDS011;3962;42.696;23.354;2023-07-20T13:20:45;4.63;;;4.43;;
7833;SDS011;3962;42.696;23.354;2023-07-20T13:23:11;4.93;;;4.63;;
7833;SDS011;3962;42.696;23.354;2023-07-20T13:25:38;4.72;;;4.45;;
7833;SDS011;3962;42.696;23.354;2023-07-20T13:28:05;5.95;;;5.28;;
7833;SDS011;3962;42.696;23.354;2023-07-20T13:30:33;5.07;;;4.78;;
7833;SDS011;3962;42.696;23.354;2023-07-20T13:33:00;4.53;;;4.30;;
7833;SDS011;3962;42.696;23.354;2023-07-20T13:35:27;4.53;;;4.32;;
7833;SDS011;3962;42.696;23.354;2023-07-20T13:37:55;4.10;;;3.90;;
7833;SDS011;3962;42.696;23.354;2023-07-20T13:40:22;4.72;;;4.35;;
7833;SDS011;3962;42.696;23.354;2023-07-20T13:42:49;7.47;;;5.83;;
7833;SDS011;3962;42.696;23.354;2023-07-20T13:45:16;4.97;;;4.77;;
7833;SDS011;3962;42.696;23.354;2023-07-20T13:47:43;4.50;;;4.30;;
7833;SDS011;3962;42.696;23.354;2023-07-20T13:50:10;5.07;;;4.77;;
7833;SDS011;3962;42.696;23.354;2023-07-20T13:52:36;4.73;;;4.53;;
7833;SDS011;3962;42.696;23.354;2023-07-20T13:55:05;5.03;;;4.63;;
7833;SDS011;3962;42.696;23.354;2023-07-20T13:57:32;5.03;;;4.63;;
7833;SDS011;3962;42.696;23.354;2023-07-20T13:59:58;4.40;;;4.20;;
7833;SDS011;3962;42.696;23.354;2023-07-20T14:02:27;4.43;;;4.23;;
7833;SDS011;3962;42.696;23.354;2023-07-20T14:04:53;5.50;;;5.07;;
7833;SDS011;3962;42.696;23.354;2023-07-20T14:07:24;4.83;;;4.53;;
7833;SDS011;3962;42.696;23.354;2023-07-20T14:09:51;4.77;;;4.57;;
7833;SDS011;3962;42.696;23.354;2023-07-20T14:12:19;4.80;;;4.50;;
7833;SDS011;3962;42.696;23.354;2023-07-20T14:14:46;5.33;;;4.93;;
7833;SDS011;3962;42.696;23.354;2023-07-20T14:17:12;4.90;;;4.60;;
7833;SDS011;3962;42.696;23.354;2023-07-20T14:19:39;5.23;;;4.83;;
7833;SDS011;3962;42.696;23.354;2023-07-20T14:22:06;5.17;;;4.97;;
7833;SDS011;3962;42.696;23.354;2023-07-20T14:24:32;4.80;;;4.50;;
7833;SDS011;3962;42.696;23.354;2023-07-20T14:26:59;4.77;;;4.57;;
7833;SDS011;3962;42.696;23.354;2023-07-20T14:29:28;5.73;;;5.33;;
7833;SDS011;3962;42.696;23.354;2023-07-20T14:31:56;7.77;;;4.97;;
7833;SDS011;3962;42.696;23.354;2023-07-20T14:34:23;5.97;;;5.40;;
7833;SDS011;3962;42.696;23.354;2023-07-20T14:36:50;5.30;;;5.00;;
7833;SDS011;3962;42.696;23.354;2023-07-20T14:39:17;5.43;;;5.13;;
7833;SDS011;3962;42.696;23.354;2023-07-20T14:41:44;5.70;;;5.30;;
7833;SDS011;3962;42.696;23.354;2023-07-20T14:44:11;5.07;;;4.80;;
7833;SDS011;3962;42.696;23.354;2023-07-20T14:46:39;6.13;;;5.73;;
7833;SDS011;3962;42.696;23.354;2023-07-20T14:49:06;5.37;;;4.97;;
7833;SDS011;3962;42.696;23.354;2023-07-20T14:51:33;5.60;;;5.20;;
7833;SDS011;3962;42.696;23.354;2023-07-20T14:54:01;4.87;;;4.57;;
7833;SDS011;3962;42.696;23.354;2023-07-20T14:56:28;4.77;;;4.57;;
7833;SDS011;3962;42.696;23.354;2023-07-20T14:58:54;5.87;;;5.47;;
7833;SDS011;3962;42.696;23.354;2023-07-20T15:01:23;5.00;;;4.70;;
7833;SDS011;3962;42.696;23.354;2023-07-20T15:03:51;5.57;;;5.27;;
7833;SDS011;3962;42.696;23.354;2023-07-20T15:06:18;5.80;;;5.37;;
7833;SDS011;3962;42.696;23.354;2023-07-20T15:08:45;5.10;;;4.90;;
7833;SDS011;3962;42.696;23.354;2023-07-20T15:11:12;5.50;;;5.20;;
7833;SDS011;3962;42.696;23.354;2023-07-20T15:13:39;4.60;;;4.40;;
7833;SDS011;3962;42.696;23.354;2023-07-20T15:16:08;4.80;;;4.60;;